createdAt,value
2018-06-30T00:02:15.516Z,22.66
2018-06-30T00:04:41.523Z,22.67
2018-06-30T00:07:07.515Z,22.68
2018-06-30T00:09:33.500Z,22.63
2018-06-30T00:11:59.473Z,22.52
2018-06-30T00:14:25.448Z,22.48
2018-06-30T00:16:51.407Z,22.44
2018-06-30T00:19:17.399Z,22.36
2018-06-30T00:21:43.350Z,22.42
2018-06-30T00:24:09.323Z,22.50
2018-06-30T00:26:35.284Z,22.36
2018-06-30T00:29:01.236Z,22.27
2018-06-30T00:31:27.175Z,22.41
2018-06-30T00:33:53.199Z,22.35
2018-06-30T00:36:19.158Z,22.33
2018-06-30T00:38:45.122Z,22.23
2018-06-30T00:41:11.104Z,22.34
2018-06-30T00:43:37.060Z,22.30
2018-06-30T00:46:03.015Z,22.19
2018-06-30T00:48:29.022Z,22.34
2018-06-30T00:50:54.947Z,22.31
2018-06-30T00:53:20.895Z,22.33
2018-06-30T00:55:46.860Z,22.32
2018-06-30T00:58:12.820Z,22.29
2018-06-30T01:00:38.824Z,22.15
2018-06-30T01:03:04.779Z,22.29
2018-06-30T01:05:31.001Z,22.26
2018-06-30T01:07:56.964Z,22.33
2018-06-30T01:10:22.916Z,22.12
2018-06-30T01:12:48.896Z,22.10
2018-06-30T01:15:14.858Z,22.25
2018-06-30T01:17:40.797Z,22.16
2018-06-30T01:20:06.781Z,22.23
2018-06-30T01:22:32.748Z,22.16
2018-06-30T01:24:58.720Z,22.20
2018-06-30T01:27:24.657Z,22.06
2018-06-30T01:29:50.617Z,21.84
2018-06-30T01:32:16.587Z,21.95
2018-06-30T01:34:42.551Z,22.02
2018-06-30T01:37:08.526Z,21.99
2018-06-30T01:39:34.511Z,21.83
2018-06-30T01:42:00.513Z,21.76
2018-06-30T01:44:26.450Z,21.89
2018-06-30T01:46:52.419Z,21.79
2018-06-30T01:49:18.373Z,21.86
2018-06-30T01:51:44.320Z,21.22
2018-06-30T01:54:10.304Z,21.45
2018-06-30T01:56:36.241Z,21.47
2018-06-30T01:59:02.199Z,21.31
2018-06-30T02:01:28.152Z,21.11
2018-06-30T02:03:54.102Z,21.23
2018-06-30T02:06:20.034Z,21.21
2018-06-30T02:08:45.990Z,21.25
2018-06-30T02:11:11.961Z,21.19
2018-06-30T02:13:37.959Z,21.34
2018-06-30T02:16:03.932Z,21.01
2018-06-30T02:18:29.886Z,21.09
2018-06-30T02:20:55.865Z,21.06
2018-06-30T02:23:21.807Z,21.22
2018-06-30T02:25:47.748Z,21.00
2018-06-30T02:28:13.740Z,20.89
2018-06-30T02:30:39.711Z,21.04
2018-06-30T02:33:05.688Z,20.89
2018-06-30T02:35:31.656Z,21.05
2018-06-30T02:37:57.617Z,20.95
2018-06-30T02:40:23.619Z,20.84
2018-06-30T02:42:49.805Z,20.74
2018-06-30T02:45:15.787Z,20.88
2018-06-30T02:47:41.740Z,20.98
2018-06-30T02:50:07.696Z,20.69
2018-06-30T02:52:33.674Z,20.66
2018-06-30T02:54:59.658Z,20.72
2018-06-30T02:57:25.623Z,20.68
2018-06-30T02:59:51.559Z,20.36
2018-06-30T03:02:17.508Z,20.36
2018-06-30T03:04:43.492Z,20.43
2018-06-30T03:07:09.462Z,20.53
2018-06-30T03:09:35.417Z,20.53
2018-06-30T03:12:01.409Z,20.59
2018-06-30T03:14:27.362Z,20.63
2018-06-30T03:16:53.336Z,20.53
2018-06-30T03:19:19.286Z,20.44
2018-06-30T03:21:45.243Z,20.01
2018-06-30T03:24:11.219Z,20.24
2018-06-30T03:26:38.595Z,20.16
2018-06-30T03:29:04.908Z,19.86
2018-06-30T03:31:30.904Z,19.70
2018-06-30T03:33:56.812Z,19.83
2018-06-30T03:36:22.774Z,19.78
2018-06-30T03:38:48.758Z,19.98
2018-06-30T03:41:14.701Z,19.70
2018-06-30T03:43:40.645Z,19.78
2018-06-30T03:46:06.588Z,19.66
2018-06-30T03:48:32.550Z,19.69
2018-06-30T03:50:58.524Z,19.92
2018-06-30T03:53:24.465Z,19.74
2018-06-30T03:55:50.481Z,19.79
2018-06-30T03:58:16.445Z,20.03
2018-06-30T04:00:42.424Z,20.14
2018-06-30T04:03:08.372Z,20.03
2018-06-30T04:05:34.318Z,19.91
2018-06-30T04:08:00.301Z,20.00
2018-06-30T04:10:26.255Z,19.84
2018-06-30T04:12:52.208Z,19.76
2018-06-30T04:15:18.152Z,19.69
2018-06-30T04:17:47.708Z,19.40
2018-06-30T04:20:13.856Z,19.47
2018-06-30T04:22:39.804Z,19.52
2018-06-30T04:25:05.768Z,19.33
2018-06-30T04:27:31.733Z,19.28
2018-06-30T04:29:57.695Z,19.44
2018-06-30T04:32:23.679Z,19.48
2018-06-30T04:34:49.642Z,19.73
2018-06-30T04:37:15.600Z,19.72
2018-06-30T04:39:41.543Z,19.65
2018-06-30T04:42:07.521Z,19.75
2018-06-30T04:44:33.460Z,19.85
2018-06-30T04:46:59.407Z,20.18
2018-06-30T04:49:25.370Z,20.40
2018-06-30T04:51:51.314Z,20.85
2018-06-30T04:54:17.276Z,20.96
2018-06-30T04:56:43.248Z,20.86
2018-06-30T04:59:09.248Z,20.94
2018-06-30T05:01:35.242Z,20.99
2018-06-30T05:04:01.221Z,20.91
2018-06-30T05:06:27.168Z,20.86
2018-06-30T05:08:53.359Z,20.96
2018-06-30T05:11:19.363Z,21.28
2018-06-30T05:13:45.365Z,21.34
2018-06-30T05:16:11.310Z,21.09
2018-06-30T05:18:37.252Z,21.21
2018-06-30T05:21:03.210Z,21.02
2018-06-30T05:23:29.173Z,20.83
2018-06-30T05:25:55.166Z,21.07
2018-06-30T05:28:21.129Z,21.34
2018-06-30T05:30:47.132Z,21.65
2018-06-30T05:33:13.131Z,21.82
2018-06-30T05:35:39.048Z,21.64
2018-06-30T05:38:04.993Z,21.70
2018-06-30T05:40:30.952Z,21.80
2018-06-30T05:42:56.916Z,21.60
2018-06-30T05:45:22.894Z,21.69
2018-06-30T05:47:48.834Z,21.48
2018-06-30T05:50:14.788Z,21.83
2018-06-30T05:52:40.731Z,21.97
2018-06-30T05:55:06.687Z,22.06
2018-06-30T05:57:32.637Z,22.32
2018-06-30T05:59:58.596Z,22.27
2018-06-30T06:02:24.618Z,22.19
2018-06-30T06:04:50.567Z,22.63
2018-06-30T06:07:16.521Z,22.84
2018-06-30T06:09:42.525Z,22.75
2018-06-30T06:12:08.511Z,22.36
2018-06-30T06:14:34.510Z,22.18
2018-06-30T06:17:00.484Z,22.68
2018-06-30T06:19:26.430Z,23.20
2018-06-30T06:21:52.402Z,23.45
2018-06-30T06:24:18.392Z,22.97
2018-06-30T06:26:44.457Z,23.73
2018-06-30T06:29:10.443Z,23.54
2018-06-30T06:31:36.398Z,23.66
2018-06-30T06:34:02.375Z,23.80
2018-06-30T06:36:28.305Z,24.01
2018-06-30T06:38:54.337Z,24.33
2018-06-30T06:41:20.308Z,23.71
2018-06-30T06:43:46.287Z,23.85
2018-06-30T06:46:12.262Z,24.47
2018-06-30T06:48:38.323Z,24.34
2018-06-30T06:51:04.302Z,24.64
2018-06-30T06:53:30.293Z,24.70
2018-06-30T06:55:56.289Z,24.97
2018-06-30T06:58:22.357Z,25.18
2018-06-30T07:00:48.304Z,25.26
2018-06-30T07:03:14.261Z,24.63
2018-06-30T07:05:40.280Z,24.76
2018-06-30T07:08:06.271Z,25.17
2018-06-30T07:10:32.339Z,24.95
2018-06-30T07:12:58.358Z,25.56
2018-06-30T07:20:27.193Z,25.81
2018-06-30T07:22:53.153Z,25.57
2018-06-30T07:25:19.269Z,25.56
2018-06-30T07:27:45.269Z,25.42
2018-06-30T07:30:11.266Z,25.98
2018-06-30T07:32:37.240Z,26.35
2018-06-30T07:35:03.230Z,26.64
2018-06-30T07:37:29.247Z,26.67
2018-06-30T07:39:55.228Z,26.56
2018-06-30T07:42:21.172Z,26.68
2018-06-30T07:44:47.148Z,26.08
2018-06-30T07:47:13.786Z,26.19
2018-06-30T07:49:39.769Z,26.00
2018-06-30T07:52:05.753Z,25.48
2018-06-30T07:54:31.717Z,25.64
2018-06-30T07:56:57.685Z,25.73
2018-06-30T07:59:23.656Z,25.41
2018-06-30T08:01:49.621Z,25.34
2018-06-30T08:04:16.455Z,25.27
2018-06-30T08:06:42.457Z,24.99
2018-06-30T08:09:08.424Z,25.38
2018-06-30T08:11:34.713Z,25.53
2018-06-30T08:14:00.654Z,25.40
2018-06-30T08:16:26.619Z,25.46
2018-06-30T08:18:52.596Z,25.26
2018-06-30T08:21:18.562Z,25.05
2018-06-30T08:23:44.502Z,25.19
2018-06-30T08:26:10.475Z,25.19
2018-06-30T08:28:36.432Z,25.15
2018-06-30T08:31:02.413Z,24.79
2018-06-30T08:33:28.367Z,24.74
2018-06-30T08:35:54.327Z,24.47
2018-06-30T08:38:20.390Z,24.04
2018-06-30T08:40:46.345Z,24.27
2018-06-30T08:43:13.338Z,24.24
2018-06-30T08:45:39.294Z,24.19
2018-06-30T08:48:05.251Z,24.34
2018-06-30T08:50:31.217Z,23.80
2018-06-30T08:52:57.217Z,24.00
2018-06-30T08:55:23.171Z,23.95
2018-06-30T08:57:49.126Z,24.07
2018-06-30T09:00:15.078Z,23.64
2018-06-30T09:02:41.044Z,23.50
2018-06-30T09:05:06.978Z,23.19
2018-06-30T09:07:32.957Z,22.91
2018-06-30T09:09:59.002Z,22.90
2018-06-30T09:12:24.948Z,22.85
2018-06-30T09:14:50.884Z,22.85
2018-06-30T09:17:16.848Z,23.05
2018-06-30T09:19:43.890Z,23.03
2018-06-30T09:22:09.913Z,23.05
2018-06-30T09:24:35.854Z,22.94
2018-06-30T09:27:01.826Z,22.43
2018-06-30T09:29:28.824Z,22.57
2018-06-30T09:31:54.831Z,22.63
2018-06-30T09:34:20.798Z,22.67
2018-06-30T09:36:49.405Z,22.35
2018-06-30T09:39:15.483Z,22.52
2018-06-30T09:41:42.959Z,22.64
2018-06-30T09:44:08.906Z,22.73
2018-06-30T09:46:34.874Z,22.72
2018-06-30T09:49:00.854Z,22.67
2018-06-30T09:51:26.799Z,22.69
2018-06-30T09:53:52.773Z,22.65
2018-06-30T09:56:18.735Z,22.71
2018-06-30T09:58:44.713Z,22.71
2018-06-30T10:01:10.694Z,22.73
2018-06-30T10:03:36.698Z,22.64
2018-06-30T10:06:02.672Z,22.65
2018-06-30T10:08:28.661Z,22.61
2018-06-30T10:10:54.637Z,22.64
2018-06-30T10:13:20.600Z,22.51
2018-06-30T10:15:50.703Z,22.02
2018-06-30T10:18:16.895Z,22.23
2018-06-30T10:20:42.852Z,22.13
2018-06-30T10:25:43.832Z,21.45
2018-06-30T10:33:12.478Z,22.12
2018-06-30T10:35:38.416Z,22.25
2018-06-30T10:38:04.414Z,22.29
2018-06-30T10:40:30.402Z,22.28
2018-06-30T10:42:56.406Z,21.99
2018-06-30T10:45:22.399Z,22.15
2018-06-30T10:47:48.397Z,22.12
2018-06-30T10:50:14.424Z,22.19
2018-06-30T10:52:40.384Z,22.08
2018-06-30T10:55:06.339Z,22.23
2018-06-30T10:57:32.297Z,22.16
2018-06-30T10:59:58.254Z,22.28
2018-06-30T11:02:24.208Z,21.96
2018-06-30T11:04:50.157Z,22.03
2018-06-30T11:07:16.120Z,21.61
2018-06-30T11:09:42.143Z,22.03
2018-06-30T11:12:08.169Z,22.02
2018-06-30T11:14:34.104Z,21.88
2018-06-30T11:17:00.063Z,22.01
2018-06-30T11:19:26.063Z,22.10
2018-06-30T11:21:52.036Z,22.23
2018-06-30T11:24:17.983Z,22.28
2018-06-30T11:26:43.923Z,22.16
2018-06-30T11:29:09.913Z,22.04
2018-06-30T11:31:35.891Z,22.05
2018-06-30T11:34:01.857Z,22.07
2018-06-30T11:36:27.866Z,22.13
2018-06-30T11:38:53.893Z,22.14
2018-06-30T11:41:20.186Z,22.28
2018-06-30T11:43:46.137Z,22.23
2018-06-30T11:46:12.095Z,22.23
2018-06-30T11:48:38.072Z,20.12
2018-06-30T11:51:04.045Z,22.19
2018-06-30T11:53:30.064Z,22.26
2018-06-30T11:55:56.022Z,22.26
2018-06-30T11:58:21.985Z,22.32
2018-06-30T12:00:48.017Z,22.26
2018-06-30T12:03:14.003Z,22.32
2018-06-30T12:05:39.981Z,22.40
2018-06-30T12:08:05.971Z,22.24
2018-06-30T12:10:31.948Z,22.31
2018-06-30T12:12:57.930Z,22.39
2018-06-30T12:15:23.973Z,22.44
2018-06-30T12:17:50.100Z,22.40
2018-06-30T12:20:16.063Z,22.52
2018-06-30T12:22:42.096Z,22.53
2018-06-30T12:25:08.072Z,22.58
2018-06-30T12:27:34.086Z,22.57
2018-06-30T12:30:00.096Z,22.64
2018-06-30T12:32:26.185Z,22.68
2018-06-30T12:34:52.168Z,22.50
2018-06-30T12:37:18.173Z,22.61
2018-06-30T12:39:44.180Z,22.63
2018-06-30T12:42:10.140Z,22.68
2018-06-30T12:44:36.085Z,22.64
2018-06-30T12:47:02.059Z,22.63
2018-06-30T12:49:28.037Z,22.68
2018-06-30T12:51:54.055Z,22.61
2018-06-30T12:54:20.074Z,22.64
2018-06-30T12:56:46.084Z,22.66
2018-06-30T12:59:12.116Z,22.74
2018-06-30T13:01:38.158Z,22.79
2018-06-30T13:04:04.132Z,22.72
2018-06-30T13:06:30.155Z,22.71
2018-06-30T13:08:56.095Z,22.77
2018-06-30T13:11:22.089Z,22.79
2018-06-30T13:13:48.062Z,22.79
2018-06-30T13:16:14.015Z,22.73
2018-06-30T13:18:40.021Z,22.71
2018-06-30T13:21:08.451Z,22.73
2018-06-30T13:23:34.525Z,22.72
2018-06-30T13:26:00.494Z,22.68
2018-06-30T13:28:26.462Z,22.38
2018-06-30T13:30:52.436Z,22.47
2018-06-30T13:33:18.465Z,22.52
2018-06-30T13:35:44.568Z,22.43
2018-06-30T13:38:10.548Z,22.65
2018-06-30T13:40:36.547Z,22.73
2018-06-30T13:43:02.547Z,22.78
2018-06-30T13:45:28.513Z,22.78
2018-06-30T13:47:54.541Z,22.79
2018-06-30T13:50:20.545Z,22.84
2018-06-30T13:52:46.567Z,22.84
2018-06-30T13:55:12.475Z,22.78
2018-06-30T13:57:38.823Z,22.58
2018-06-30T14:00:04.829Z,22.46
2018-06-30T14:02:30.788Z,22.23
2018-06-30T14:04:56.777Z,22.37
2018-06-30T14:07:22.764Z,22.45
2018-06-30T14:09:48.707Z,22.36
2018-06-30T14:12:14.657Z,22.16
2018-06-30T14:14:40.631Z,22.19
2018-06-30T14:17:06.769Z,22.44
2018-06-30T14:19:32.721Z,22.61
2018-06-30T14:21:58.681Z,22.65
2018-06-30T14:24:24.656Z,22.60
2018-06-30T14:26:50.618Z,22.52
2018-06-30T14:29:16.562Z,22.40
2018-06-30T14:31:42.812Z,22.46
2018-06-30T14:34:08.793Z,22.36
2018-06-30T14:36:34.753Z,22.41
2018-06-30T14:39:00.694Z,22.45
2018-06-30T14:41:26.674Z,22.38
2018-06-30T14:43:52.741Z,22.36
2018-06-30T14:46:18.696Z,22.40
2018-06-30T14:48:44.670Z,22.39
2018-06-30T14:51:10.649Z,22.43
2018-06-30T14:53:36.600Z,22.41
2018-06-30T14:56:02.683Z,22.46
2018-06-30T14:58:28.649Z,22.53
2018-06-30T15:00:55.335Z,22.43
2018-06-30T15:03:21.299Z,22.53
2018-06-30T15:05:47.255Z,22.58
2018-06-30T15:08:13.208Z,22.45
2018-06-30T15:10:39.164Z,22.39
2018-06-30T15:13:05.155Z,22.12
2018-06-30T15:15:31.157Z,22.16
2018-06-30T15:17:57.141Z,22.33
2018-06-30T15:20:23.078Z,22.37
2018-06-30T15:22:49.060Z,22.33
2018-06-30T15:25:15.030Z,22.32
2018-06-30T15:27:41.050Z,22.28
2018-06-30T15:30:06.999Z,22.28
2018-06-30T15:32:32.973Z,22.33
2018-06-30T15:34:58.913Z,22.38
2018-06-30T15:37:24.894Z,22.41
2018-06-30T15:39:50.866Z,22.40
2018-06-30T15:42:16.844Z,22.46
2018-06-30T15:44:42.827Z,22.55
2018-06-30T15:47:08.838Z,22.57
2018-06-30T15:49:34.790Z,22.59
2018-06-30T15:52:00.783Z,22.52
2018-06-30T15:54:26.738Z,22.54
2018-06-30T15:56:52.776Z,22.45
2018-06-30T15:59:18.857Z,22.56
2018-06-30T16:01:44.735Z,22.68
2018-06-30T16:04:15.806Z,22.73
2018-06-30T16:06:41.781Z,22.70
2018-06-30T16:09:07.815Z,22.58
2018-06-30T16:11:33.855Z,22.61
2018-06-30T16:14:00.905Z,22.48
2018-06-30T16:16:26.923Z,22.64
2018-06-30T16:18:52.964Z,22.71
2018-06-30T16:21:18.917Z,22.79
2018-06-30T16:23:44.917Z,22.70
2018-06-30T16:26:10.880Z,22.65
2018-06-30T16:28:36.885Z,22.61
2018-06-30T16:31:02.834Z,22.50
2018-06-30T16:33:29.178Z,22.40
2018-06-30T16:35:55.165Z,22.35
2018-06-30T16:38:21.123Z,22.43
2018-06-30T16:40:47.108Z,22.48
2018-06-30T16:43:13.081Z,22.58
2018-06-30T16:45:39.072Z,22.64
2018-06-30T16:48:05.020Z,22.74
2018-06-30T16:50:30.955Z,22.77
2018-06-30T16:52:56.968Z,22.75
2018-06-30T16:55:22.974Z,22.81
2018-06-30T16:57:48.993Z,22.78
2018-06-30T17:00:14.944Z,22.51
2018-06-30T17:02:41.335Z,22.47
2018-06-30T17:05:07.280Z,22.49
2018-06-30T17:07:33.312Z,22.44
2018-06-30T17:09:59.258Z,22.35
2018-06-30T17:12:25.248Z,22.12
2018-06-30T17:14:51.337Z,22.20
2018-06-30T17:17:17.329Z,22.21
2018-06-30T17:19:43.307Z,22.26
2018-06-30T17:22:09.330Z,22.31
2018-06-30T17:24:35.287Z,22.33
2018-06-30T17:27:01.262Z,22.40
2018-06-30T17:29:29.270Z,22.43
2018-06-30T17:31:55.286Z,22.51
2018-06-30T17:34:21.262Z,22.46
2018-06-30T17:36:47.226Z,22.34
2018-06-30T17:39:13.215Z,22.31
2018-06-30T17:41:39.265Z,22.13
2018-06-30T17:44:05.242Z,22.18
2018-06-30T17:46:31.246Z,22.15
2018-06-30T17:48:57.246Z,22.16
2018-06-30T17:51:23.218Z,22.08
2018-06-30T17:53:50.857Z,22.12
2018-06-30T17:56:16.812Z,22.08
2018-06-30T17:58:42.800Z,21.99
2018-06-30T18:01:08.800Z,21.97
2018-06-30T18:03:34.759Z,21.98
2018-06-30T18:06:00.699Z,21.92
2018-06-30T18:08:26.697Z,21.87
2018-06-30T18:10:52.680Z,21.88
2018-06-30T18:13:18.626Z,21.90
2018-06-30T18:15:44.569Z,21.89
2018-06-30T18:18:10.511Z,21.95
2018-06-30T18:20:36.569Z,21.97
2018-06-30T18:23:02.533Z,21.93
2018-06-30T18:25:28.513Z,21.89
2018-06-30T18:27:54.477Z,21.87
2018-06-30T18:30:20.433Z,21.92
2018-06-30T18:32:46.476Z,21.95
2018-06-30T18:35:12.445Z,21.88
2018-06-30T18:37:38.472Z,21.91
2018-06-30T18:40:04.467Z,21.89
2018-06-30T18:42:30.464Z,21.82
2018-06-30T18:44:56.449Z,21.84
2018-06-30T18:47:22.455Z,21.89
2018-06-30T18:49:48.449Z,21.97
2018-06-30T18:52:14.418Z,21.96
2018-06-30T18:54:40.416Z,21.93
2018-06-30T18:57:06.419Z,21.95
2018-06-30T18:59:32.438Z,21.98
2018-06-30T19:01:58.416Z,22.00
2018-06-30T19:04:24.421Z,22.01
2018-06-30T19:06:50.457Z,22.06
2018-06-30T19:09:16.427Z,22.04
2018-06-30T19:11:42.487Z,21.96
2018-06-30T19:14:08.442Z,21.89
2018-06-30T19:16:34.432Z,21.93
2018-06-30T19:19:00.399Z,22.00
2018-06-30T19:21:26.502Z,21.97
2018-06-30T19:23:52.454Z,21.98
2018-06-30T19:26:18.448Z,21.96
2018-06-30T19:28:44.411Z,21.91
2018-06-30T19:31:10.389Z,21.82
2018-06-30T19:33:36.395Z,21.87
2018-06-30T19:36:02.621Z,21.92
2018-06-30T19:38:28.612Z,21.85
2018-06-30T19:40:54.600Z,21.81
2018-06-30T19:43:20.565Z,21.71
2018-06-30T19:45:46.545Z,21.67
2018-06-30T19:48:12.503Z,21.63
2018-06-30T19:50:39.578Z,21.69
2018-06-30T19:53:05.604Z,21.70
2018-06-30T19:55:31.634Z,21.69
2018-06-30T19:57:57.626Z,21.52
2018-06-30T20:00:23.588Z,21.56
2018-06-30T20:02:49.551Z,21.61
2018-06-30T20:05:15.551Z,21.62
2018-06-30T20:07:41.496Z,21.60
2018-06-30T20:10:07.492Z,21.53
2018-06-30T20:15:09.381Z,21.49
2018-06-30T20:17:35.407Z,21.37
2018-06-30T20:20:03.467Z,21.31
2018-06-30T20:22:29.438Z,21.28
2018-06-30T20:24:55.470Z,21.23
2018-06-30T20:27:21.465Z,21.15
2018-06-30T20:29:47.484Z,21.07
2018-06-30T20:32:13.493Z,21.17
2018-06-30T20:34:39.505Z,21.12
2018-06-30T20:37:05.477Z,21.09
2018-06-30T20:39:31.464Z,20.88
2018-06-30T20:41:57.470Z,21.01
2018-06-30T20:44:23.481Z,20.95
2018-06-30T20:46:49.483Z,20.98
2018-06-30T20:49:15.587Z,21.01
2018-06-30T20:54:15.041Z,20.99
2018-06-30T20:56:44.996Z,20.88
2018-06-30T20:59:12.034Z,20.78
2018-06-30T21:01:38.116Z,20.75
2018-06-30T21:04:04.094Z,20.79
2018-06-30T21:06:30.129Z,20.73
2018-06-30T21:08:56.160Z,20.64
2018-06-30T21:11:22.194Z,20.70
2018-06-30T21:13:48.217Z,20.69
2018-06-30T21:16:14.311Z,20.80
2018-06-30T21:18:40.319Z,20.52
2018-06-30T21:21:06.324Z,20.57
2018-06-30T21:23:32.313Z,20.45
2018-06-30T21:25:58.296Z,20.45
2018-06-30T21:28:24.286Z,20.40
2018-06-30T21:30:50.231Z,20.35
2018-06-30T21:33:16.509Z,20.36
2018-06-30T21:35:42.440Z,20.35
2018-06-30T21:38:08.406Z,20.40
2018-06-30T21:40:34.538Z,20.32
2018-06-30T21:43:00.529Z,20.30
2018-06-30T21:45:26.889Z,20.24
2018-06-30T21:47:52.850Z,20.17
2018-06-30T21:50:18.845Z,20.13
2018-06-30T21:52:44.786Z,20.10
2018-06-30T21:55:10.776Z,20.05
2018-06-30T21:57:36.792Z,20.02
2018-06-30T22:00:02.744Z,20.05
2018-06-30T22:02:28.722Z,20.03
2018-06-30T22:04:54.683Z,20.01
2018-06-30T22:07:20.652Z,19.98
2018-06-30T22:09:46.652Z,19.89
2018-06-30T22:12:12.646Z,19.89
2018-06-30T22:14:38.623Z,19.84
2018-06-30T22:17:04.605Z,19.92
2018-06-30T22:19:30.551Z,19.79
2018-06-30T22:21:56.533Z,19.88
2018-06-30T22:24:22.524Z,19.74
2018-06-30T22:26:48.492Z,19.65
2018-06-30T22:29:14.439Z,19.57
2018-06-30T22:31:40.417Z,19.48
2018-06-30T22:34:06.412Z,19.41
2018-06-30T22:36:32.406Z,19.36
2018-06-30T22:38:58.602Z,19.28
2018-06-30T22:41:24.581Z,19.33
2018-06-30T22:43:50.568Z,19.28
2018-06-30T22:46:16.513Z,19.25
2018-06-30T22:48:42.481Z,19.15
2018-06-30T22:51:08.443Z,19.16
2018-06-30T22:53:34.422Z,19.23
2018-06-30T22:56:00.387Z,19.17
2018-06-30T22:58:26.369Z,19.26
2018-06-30T23:00:52.339Z,19.18
2018-06-30T23:03:18.316Z,19.24
2018-06-30T23:05:44.284Z,19.22
2018-06-30T23:08:10.256Z,19.33
2018-06-30T23:10:36.255Z,19.31
2018-06-30T23:13:02.225Z,19.22
2018-06-30T23:15:28.161Z,19.11
2018-06-30T23:17:54.109Z,19.16
2018-06-30T23:20:20.128Z,19.11
2018-06-30T23:22:46.148Z,18.92
2018-06-30T23:25:12.153Z,19.14
2018-06-30T23:27:38.097Z,19.23
2018-06-30T23:30:04.063Z,19.23
2018-06-30T23:32:30.040Z,19.13
2018-06-30T23:34:56.006Z,19.02
2018-06-30T23:37:22.640Z,19.10
2018-06-30T23:39:48.597Z,19.11
2018-06-30T23:42:14.553Z,19.12
2018-06-30T23:44:40.535Z,19.10
2018-06-30T23:47:06.434Z,19.09
2018-06-30T23:49:32.387Z,18.78
2018-06-30T23:51:58.327Z,18.69
2018-06-30T23:54:24.300Z,18.66
2018-06-30T23:56:50.249Z,18.71
2018-06-30T23:59:16.217Z,18.66
